Time;durP1;ratioP1;P1;durP2;ratioP2;P2;SDS_P1;SDS_P2;PMS_P1;PMS_P2;Temp;Humidity;BMP_temperature;BMP_pressure;BME280_temperature;BME280_humidity;BME280_pressure;Samples;Min_cycle;Max_cycle;Signal;HPM_P1;HPM_P2
2023/03/11 00:01:14;;;;;;;4.00;2.70;;;23.50;81.90;;;;;;6102497;28;80717;-61
2023/03/11 00:04:15;;;;;;;4.95;3.15;;;23.50;81.90;;;;;;6100699;28;80516;-62
2023/03/11 00:07:15;;;;;;;4.43;2.67;;;23.50;81.70;;;;;;6101375;28;80180;-62
2023/03/11 00:10:16;;;;;;;3.97;2.83;;;23.50;81.70;;;;;;6101179;28;81065;-62
2023/03/11 00:13:16;;;;;;;3.08;2.67;;;23.50;81.70;;;;;;6100659;28;80165;-60
2023/03/11 00:16:17;;;;;;;5.63;2.58;;;23.50;81.70;;;;;;6101678;28;80360;-60
2023/03/11 00:19:17;;;;;;;4.82;2.85;;;23.50;81.60;;;;;;6101210;28;80805;-68
2023/03/11 00:22:18;;;;;;;3.10;2.63;;;23.50;81.60;;;;;;6101462;28;81603;-69
2023/03/11 00:25:18;;;;;;;4.07;2.70;;;23.50;81.50;;;;;;6099763;28;80456;-71
2023/03/11 00:28:21;;;;;;;4.75;2.97;;;23.50;81.60;;;;;;6090541;28;80728;-69
2023/03/11 00:31:21;;;;;;;4.10;2.78;;;23.50;81.60;;;;;;6101040;28;82666;-68
2023/03/11 00:34:22;;;;;;;4.85;2.83;;;23.50;81.60;;;;;;6101189;28;80687;-68
2023/03/11 00:37:22;;;;;;;5.18;2.80;;;23.50;81.60;;;;;;6101940;28;80598;-64
2023/03/11 00:40:23;;;;;;;4.65;2.92;;;23.50;81.60;;;;;;6101059;28;81822;-66
2023/03/11 00:43:23;;;;;;;5.05;3.28;;;23.50;81.50;;;;;;6101628;28;80408;-66
2023/03/11 00:46:24;;;;;;;4.47;3.08;;;23.50;81.60;;;;;;6100297;28;81307;-66
2023/03/11 00:49:24;;;;;;;3.67;2.67;;;23.50;81.50;;;;;;6099981;28;81169;-67
2023/03/11 00:52:25;;;;;;;3.38;2.58;;;23.50;81.60;;;;;;6099002;28;81322;-67
2023/03/11 00:55:25;;;;;;;4.20;2.67;;;23.50;81.50;;;;;;6099755;28;83207;-67
2023/03/11 00:58:29;;;;;;;3.60;2.40;;;23.50;81.60;;;;;;6098325;28;83413;-69
2023/03/11 01:01:31;;;;;;;3.55;2.72;;;23.50;81.50;;;;;;6098754;28;83086;-68
2023/03/11 01:04:31;;;;;;;3.40;2.50;;;23.50;81.50;;;;;;6178972;28;80204;-69
2023/03/11 01:07:32;;;;;;;5.75;3.05;;;23.50;81.50;;;;;;6095309;28;81016;-69
2023/03/11 01:10:33;;;;;;;5.30;3.25;;;23.50;81.50;;;;;;6097639;28;82884;-71
2023/03/11 01:13:33;;;;;;;4.47;2.60;;;23.40;81.40;;;;;;6090418;28;87712;-68
2023/03/11 01:16:34;;;;;;;4.38;2.63;;;23.50;81.50;;;;;;6099134;28;81964;-62
2023/03/11 01:19:34;;;;;;;3.38;2.58;;;23.50;81.50;;;;;;6095151;28;81490;-63
2023/03/11 01:22:35;;;;;;;5.07;3.28;;;23.50;81.50;;;;;;6101852;28;80370;-67
2023/03/11 01:25:36;;;;;;;5.15;2.83;;;23.50;81.50;;;;;;6103370;28;80489;-68
2023/03/11 01:28:36;;;;;;;3.97;2.78;;;23.50;81.50;;;;;;6104287;28;80560;-68
2023/03/11 01:31:37;;;;;;;4.10;2.55;;;23.50;81.50;;;;;;6102567;28;82841;-68
2023/03/11 01:34:38;;;;;;;3.92;2.72;;;23.50;81.50;;;;;;6102070;28;81478;-71
2023/03/11 01:37:38;;;;;;;3.58;2.60;;;23.40;81.50;;;;;;6105534;28;81420;-70
2023/03/11 01:40:39;;;;;;;3.25;2.17;;;23.40;81.50;;;;;;6205135;28;83215;-70
2023/03/11 01:43:43;;;;;;;3.38;2.40;;;23.40;81.50;;;;;;6101900;28;82288;-71
2023/03/11 01:46:47;;;;;;;3.30;2.22;;;23.40;81.50;;;;;;6101399;28;82333;-70
2023/03/11 01:49:47;;;;;;;5.15;2.90;;;23.40;81.50;;;;;;6101656;28;81349;-70
2023/03/11 01:52:48;;;;;;;3.42;2.47;;;23.40;81.50;;;;;;6104097;28;82080;-70
2023/03/11 01:55:49;;;;;;;4.07;2.47;;;23.40;81.60;;;;;;6100488;27;81682;-70
2023/03/11 01:58:51;;;;;;;4.15;3.08;;;23.40;81.50;;;;;;6102824;28;81554;-70
2023/03/11 02:01:51;;;;;;;3.58;2.53;;;23.40;81.50;;;;;;6103504;28;81319;-69
2023/03/11 02:04:52;;;;;;;3.10;2.33;;;23.40;81.50;;;;;;6101537;28;82977;-70
2023/03/11 02:07:58;;;;;;;3.13;2.40;;;23.30;81.50;;;;;;6102367;28;83485;-71
2023/03/11 02:11:02;;;;;;;4.97;2.90;;;23.30;81.50;;;;;;6100749;28;82798;-65
2023/03/11 02:14:03;;;;;;;4.65;2.72;;;23.30;81.40;;;;;;6102953;27;83942;-65
2023/03/11 02:17:03;;;;;;;2.67;1.95;;;23.30;81.40;;;;;;6091340;28;80918;-64
2023/03/11 02:20:05;;;;;;;3.63;2.35;;;23.30;81.40;;;;;;6102144;28;80515;-63
2023/03/11 02:23:06;;;;;;;2.00;1.80;;;23.30;81.50;;;;;;6101127;28;83533;-65
2023/03/11 02:26:06;;;;;;;2.60;1.92;;;23.30;81.40;;;;;;6101336;28;83088;-66
2023/03/11 02:29:07;;;;;;;3.72;2.00;;;23.30;81.40;;;;;;6101180;28;82870;-67
2023/03/11 02:32:08;;;;;;;2.15;1.90;;;23.40;81.40;;;;;;6101968;28;83214;-64
2023/03/11 02:35:10;;;;;;;2.15;1.83;;;23.30;81.20;;;;;;6100449;28;82998;-65
2023/03/11 02:38:12;;;;;;;3.20;1.80;;;23.30;81.20;;;;;;6101906;28;81375;-65
2023/03/11 02:41:14;;;;;;;2.25;1.70;;;23.40;81.20;;;;;;6101089;28;83141;-65
2023/03/11 02:44:17;;;;;;;2.33;1.55;;;23.40;81.20;;;;;;6082712;28;82639;-65
2023/03/11 02:47:17;;;;;;;2.05;1.60;;;23.40;81.10;;;;;;6099260;28;80471;-65
2023/03/11 02:50:18;;;;;;;2.97;1.80;;;23.30;81.00;;;;;;6100867;28;81138;-65
2023/03/11 02:53:19;;;;;;;1.63;1.40;;;23.30;80.90;;;;;;6099839;28;83371;-65
2023/03/11 02:56:20;;;;;;;2.40;1.70;;;23.30;80.90;;;;;;6102751;28;81344;-65
2023/03/11 02:59:21;;;;;;;2.85;1.52;;;23.30;80.90;;;;;;6102655;28;81055;-65
2023/03/11 03:02:22;;;;;;;1.55;1.40;;;23.30;80.80;;;;;;6094538;28;83532;-67
2023/03/11 03:05:23;;;;;;;1.58;1.48;;;23.40;80.80;;;;;;6100093;28;83069;-66
2023/03/11 03:08:24;;;;;;;1.90;1.50;;;23.40;80.80;;;;;;6100414;27;83300;-66
2023/03/11 03:11:25;;;;;;;1.95;1.10;;;23.30;80.70;;;;;;6102577;28;80145;-66
2023/03/11 03:14:25;;;;;;;1.77;1.25;;;23.30;80.60;;;;;;6099602;28;83239;-63
2023/03/11 03:17:26;;;;;;;1.73;1.25;;;23.30;80.60;;;;;;6100427;28;82971;-63
2023/03/11 03:20:26;;;;;;;1.25;1.15;;;23.40;80.60;;;;;;6097005;28;80456;-63
2023/03/11 03:23:36;;;;;;;1.52;1.35;;;23.40;80.50;;;;;;6101166;28;82912;-64
2023/03/11 03:26:37;;;;;;;1.77;1.13;;;23.40;80.60;;;;;;6100490;28;83258;-64
2023/03/11 03:29:38;;;;;;;1.60;1.20;;;23.30;80.40;;;;;;6100647;28;83058;-64
2023/03/11 03:32:39;;;;;;;1.50;1.20;;;23.30;80.30;;;;;;6099645;28;83079;-66
2023/03/11 03:35:43;;;;;;;1.50;1.40;;;23.30;80.30;;;;;;6100141;28;83269;-67
2023/03/11 03:38:51;;;;;;;2.25;1.20;;;23.30;80.30;;;;;;6100091;28;82496;-66
2023/03/11 03:41:51;;;;;;;1.40;1.00;;;23.30;80.20;;;;;;6094328;28;81322;-66
2023/03/11 03:44:53;;;;;;;0.95;0.90;;;23.30;80.10;;;;;;6099155;28;81829;-66
2023/03/11 03:47:54;;;;;;;3.92;0.90;;;23.30;80.10;;;;;;6100484;28;83279;-67
2023/03/11 03:50:57;;;;;;;1.23;1.00;;;23.30;80.10;;;;;;6100172;28;82810;-67
2023/03/11 03:53:57;;;;;;;1.50;0.90;;;23.30;80.10;;;;;;6099386;28;83075;-67
2023/03/11 03:56:59;;;;;;;1.15;0.85;;;23.30;80.10;;;;;;6100299;28;83104;-67
2023/03/11 04:00:03;;;;;;;1.13;0.93;;;23.30;80.00;;;;;;6100211;28;81430;-64
2023/03/11 04:03:14;;;;;;;0.90;0.90;;;23.30;80.00;;;;;;6101293;28;80413;-66
2023/03/11 04:06:21;;;;;;;0.80;0.80;;;23.30;79.90;;;;;;6099910;28;83155;-66
2023/03/11 04:09:27;;;;;;;0.82;0.82;;;23.30;79.90;;;;;;6100159;28;82504;-67
2023/03/11 04:12:28;;;;;;;1.02;0.93;;;23.30;79.90;;;;;;6097756;28;83167;-66
2023/03/11 04:15:29;;;;;;;0.85;0.80;;;23.30;79.90;;;;;;6099476;28;81821;-64
2023/03/11 04:18:30;;;;;;;1.42;1.23;;;23.30;79.80;;;;;;6100972;28;81591;-67
2023/03/11 04:21:31;;;;;;;1.40;0.90;;;23.20;79.70;;;;;;6100787;28;82102;-68
2023/03/11 04:24:32;;;;;;;1.30;0.93;;;23.30;79.80;;;;;;6099976;28;80471;-69
2023/03/11 04:27:33;;;;;;;0.75;0.75;;;23.30;79.90;;;;;;6100095;28;83317;-70
2023/03/11 04:30:35;;;;;;;1.35;1.10;;;23.30;79.80;;;;;;6099601;28;83048;-66
2023/03/11 04:33:36;;;;;;;0.80;0.80;;;23.20;79.60;;;;;;6162630;28;83082;-67
2023/03/11 04:36:39;;;;;;;0.95;0.80;;;23.30;79.80;;;;;;6123356;28;83274;-68
2023/03/11 04:39:40;;;;;;;0.70;0.70;;;23.30;79.50;;;;;;6091329;28;83092;-67
2023/03/11 04:42:41;;;;;;;1.17;0.90;;;23.40;79.60;;;;;;6099817;28;81570;-67
2023/03/11 04:45:42;;;;;;;1.23;0.80;;;23.40;79.50;;;;;;6096904;28;83364;-67
2023/03/11 04:48:43;;;;;;;0.77;0.70;;;23.40;79.40;;;;;;6099729;28;82854;-68
2023/03/11 04:51:44;;;;;;;1.30;0.88;;;23.50;79.30;;;;;;6099333;28;83243;-68
2023/03/11 04:54:47;;;;;;;0.70;0.70;;;23.50;79.20;;;;;;6169674;28;83320;-63
2023/03/11 04:57:48;;;;;;;1.05;0.80;;;23.50;79.20;;;;;;6135462;28;83028;-62
2023/03/11 05:00:49;;;;;;;0.95;0.95;;;23.50;79.10;;;;;;6103011;28;83234;-63
2023/03/11 05:03:51;;;;;;;1.85;0.88;;;23.60;79.00;;;;;;6181829;28;80164;-61
2023/03/11 05:06:52;;;;;;;0.90;0.70;;;23.60;78.80;;;;;;6126915;28;81084;-61
2023/03/11 05:09:53;;;;;;;0.80;0.80;;;23.60;78.90;;;;;;6103577;28;83029;-61
2023/03/11 05:12:54;;;;;;;0.82;0.82;;;23.60;78.90;;;;;;6102077;28;82352;-61
2023/03/11 05:15:57;;;;;;;0.82;0.60;;;23.70;79.00;;;;;;6101261;28;83330;-61
2023/03/11 05:18:58;;;;;;;0.77;0.77;;;23.70;79.00;;;;;;6101875;28;83376;-61
2023/03/11 05:21:59;;;;;;;1.13;0.70;;;23.70;78.90;;;;;;6103441;28;81857;-61
2023/03/11 05:25:01;;;;;;;0.90;0.80;;;23.70;78.90;;;;;;6101752;28;83469;-60
2023/03/11 05:28:02;;;;;;;0.98;0.70;;;23.70;78.90;;;;;;6103301;28;81686;-60
2023/03/11 05:31:03;;;;;;;0.90;0.80;;;23.70;78.80;;;;;;6103077;28;81508;-60
2023/03/11 05:34:06;;;;;;;0.85;0.70;;;23.70;78.80;;;;;;6099098;28;82962;-62
2023/03/11 05:37:07;;;;;;;0.60;0.60;;;23.80;78.90;;;;;;6101562;28;81321;-61
2023/03/11 05:40:07;;;;;;;0.60;0.60;;;23.70;78.90;;;;;;6097035;28;82749;-62
2023/03/11 05:43:10;;;;;;;1.30;0.70;;;23.70;78.90;;;;;;6102126;28;83243;-62
2023/03/11 05:46:14;;;;;;;0.93;0.70;;;23.70;78.90;;;;;;6074880;28;83096;-63
2023/03/11 05:49:15;;;;;;;0.70;0.70;;;23.70;78.90;;;;;;6101391;28;81553;-62
2023/03/11 05:52:16;;;;;;;0.82;0.70;;;23.70;78.90;;;;;;6182819;28;83232;-62
2023/03/11 05:55:17;;;;;;;0.98;0.77;;;23.70;78.90;;;;;;6112096;28;81319;-62
2023/03/11 05:58:19;;;;;;;1.13;0.90;;;23.70;78.90;;;;;;6102115;28;83073;-62
2023/03/11 06:01:20;;;;;;;0.63;0.63;;;23.60;78.80;;;;;;6100321;28;81047;-60
2023/03/11 06:04:21;;;;;;;1.20;0.98;;;23.60;78.80;;;;;;6099692;28;82913;-61
2023/03/11 06:07:22;;;;;;;1.23;0.80;;;23.60;78.80;;;;;;6101924;28;83233;-61
2023/03/11 06:10:22;;;;;;;1.05;0.90;;;23.60;78.80;;;;;;6102708;28;81178;-62
2023/03/11 06:13:23;;;;;;;0.80;0.68;;;23.60;78.90;;;;;;6101343;28;83670;-61
2023/03/11 06:16:26;;;;;;;1.52;1.25;;;23.50;78.80;;;;;;6091499;28;83370;-61
2023/03/11 06:19:30;;;;;;;1.23;0.82;;;23.50;78.80;;;;;;6092099;28;83258;-60
2023/03/11 06:22:30;;;;;;;1.30;0.70;;;23.50;78.80;;;;;;6082556;28;82947;-59
2023/03/11 06:25:31;;;;;;;0.65;0.65;;;23.50;78.80;;;;;;6099168;28;83394;-59
2023/03/11 06:28:32;;;;;;;0.77;0.77;;;23.50;79.00;;;;;;6100026;28;83025;-62
2023/03/11 06:31:33;;;;;;;0.93;0.63;;;23.50;79.00;;;;;;6183515;28;83473;-65
2023/03/11 06:34:39;;;;;;;1.00;0.93;;;23.50;79.20;;;;;;6099627;28;87557;-62
2023/03/11 06:37:41;;;;;;;0.88;0.80;;;23.50;79.30;;;;;;6100572;28;83613;-61
2023/03/11 06:40:43;;;;;;;1.38;0.70;;;23.50;78.90;;;;;;6095111;28;81423;-61
2023/03/11 06:43:44;;;;;;;0.70;0.70;;;23.40;79.00;;;;;;6099260;28;81435;-60
2023/03/11 06:46:46;;;;;;;0.63;0.63;;;23.40;79.00;;;;;;6092473;28;83316;-61
2023/03/11 06:49:48;;;;;;;0.77;0.70;;;23.50;78.90;;;;;;6099954;28;82341;-60
2023/03/11 06:52:49;;;;;;;0.70;0.70;;;23.40;78.70;;;;;;6100891;28;83462;-64
2023/03/11 06:55:50;;;;;;;0.80;0.80;;;23.40;78.60;;;;;;6100131;28;84199;-61
2023/03/11 06:58:51;;;;;;;1.73;0.85;;;23.40;78.70;;;;;;6110062;28;81535;-66
2023/03/11 07:01:52;;;;;;;1.00;0.77;;;23.40;78.50;;;;;;6192423;28;83222;-65
2023/03/11 07:04:53;;;;;;;0.60;0.60;;;23.40;78.50;;;;;;6111071;28;87503;-72
2023/03/11 07:07:54;;;;;;;0.85;0.70;;;23.40;78.10;;;;;;6201139;28;82978;-68
2023/03/11 07:10:56;;;;;;;1.45;1.00;;;23.40;78.00;;;;;;6199708;28;83221;-68
2023/03/11 07:13:57;;;;;;;0.90;0.80;;;23.40;77.90;;;;;;6202733;28;80030;-64
2023/03/11 07:16:57;;;;;;;1.17;0.90;;;23.40;78.00;;;;;;6199619;28;83500;-62
2023/03/11 07:20:12;;;;;;;1.67;0.80;;;23.40;78.30;;;;;;6194285;28;82565;-59
2023/03/11 07:23:12;;;;;;;1.00;0.90;;;23.40;78.20;;;;;;6196757;28;81025;-65
2023/03/11 07:26:13;;;;;;;1.25;0.80;;;23.40;78.20;;;;;;6199863;28;80476;-66
2023/03/11 07:29:13;;;;;;;1.15;0.80;;;23.30;78.10;;;;;;6199277;28;80403;-65
2023/03/11 07:32:14;;;;;;;0.70;0.70;;;23.30;78.00;;;;;;6199420;28;80453;-65
2023/03/11 07:35:14;;;;;;;0.77;0.73;;;23.30;78.00;;;;;;6200094;28;81466;-65
2023/03/11 07:38:16;;;;;;;1.08;1.00;;;23.30;78.00;;;;;;6198933;28;81263;-65
2023/03/11 07:41:16;;;;;;;1.83;0.98;;;23.30;78.00;;;;;;6198475;28;80431;-61
2023/03/11 07:44:17;;;;;;;1.92;1.10;;;23.30;78.60;;;;;;6200504;28;80821;-61
2023/03/11 07:47:17;;;;;;;2.20;1.00;;;23.30;77.90;;;;;;6199909;28;80651;-62
2023/03/11 07:50:20;;;;;;;3.25;1.00;;;23.30;78.00;;;;;;6200242;28;80492;-61
2023/03/11 07:53:21;;;;;;;1.55;1.10;;;23.20;78.00;;;;;;6199685;28;80307;-60
2023/03/11 07:56:22;;;;;;;1.88;1.17;;;23.20;78.00;;;;;;6200604;28;80699;-60
2023/03/11 07:59:23;;;;;;;1.17;0.90;;;23.20;78.00;;;;;;6201836;28;80545;-60
2023/03/11 08:02:23;;;;;;;1.02;0.93;;;23.20;78.00;;;;;;6202301;28;80777;-59
2023/03/11 08:05:24;;;;;;;1.05;0.88;;;23.20;78.00;;;;;;6202454;28;80903;-60
2023/03/11 08:08:24;;;;;;;0.80;0.80;;;23.20;77.90;;;;;;6202717;28;80716;-59
2023/03/11 08:11:25;;;;;;;1.10;0.73;;;23.20;77.90;;;;;;6201254;28;81989;-59
2023/03/11 08:14:25;;;;;;;0.93;0.82;;;23.20;78.00;;;;;;6202160;28;80737;-59
2023/03/11 08:17:27;;;;;;;1.38;0.85;;;23.10;77.90;;;;;;6201701;28;81483;-59
2023/03/11 08:20:27;;;;;;;1.27;0.70;;;23.10;77.90;;;;;;6191239;28;80690;-59
2023/03/11 08:23:28;;;;;;;0.73;0.73;;;23.10;77.90;;;;;;6201690;28;82925;-59
2023/03/11 08:26:28;;;;;;;2.22;0.90;;;23.10;77.90;;;;;;6203430;28;80835;-59
2023/03/11 08:29:29;;;;;;;0.80;0.65;;;23.10;77.90;;;;;;6205945;28;80352;-59
2023/03/11 08:32:30;;;;;;;0.70;0.70;;;23.10;77.80;;;;;;6206327;28;81234;-59
2023/03/11 08:35:30;;;;;;;1.20;0.98;;;23.10;78.10;;;;;;6206625;28;81083;-65
2023/03/11 08:38:31;;;;;;;0.90;0.90;;;23.10;78.10;;;;;;6205602;28;80872;-64
2023/03/11 08:41:31;;;;;;;1.17;0.90;;;23.20;77.80;;;;;;6206255;28;82117;-64
2023/03/11 08:44:32;;;;;;;0.93;0.90;;;23.20;77.60;;;;;;6205387;28;81746;-65
2023/03/11 08:47:33;;;;;;;1.25;1.00;;;23.20;77.40;;;;;;6205373;28;80865;-64
2023/03/11 08:50:33;;;;;;;1.15;0.93;;;23.30;77.30;;;;;;6206696;28;81308;-65
2023/03/11 08:53:34;;;;;;;1.48;1.10;;;23.30;77.30;;;;;;6200703;28;82510;-56
2023/03/11 08:56:34;;;;;;;2.45;1.30;;;23.30;76.90;;;;;;6186611;28;83078;-60
2023/03/11 08:59:35;;;;;;;1.65;1.10;;;22.90;75.80;;;;;;6206710;28;80203;-59
2023/03/11 09:02:35;;;;;;;5.43;4.07;;;22.90;77.40;;;;;;6207370;28;82206;-59
2023/03/11 09:05:36;;;;;;;2.67;1.70;;;23.00;76.90;;;;;;6207441;28;80358;-58
2023/03/11 09:08:36;;;;;;;2.85;2.28;;;23.00;76.50;;;;;;6206064;28;81600;-59
2023/03/11 09:11:37;;;;;;;3.13;2.22;;;23.10;76.60;;;;;;6205831;28;80741;-61
2023/03/11 09:14:38;;;;;;;3.90;2.17;;;23.20;76.50;;;;;;6206325;28;80833;-60
2023/03/11 09:17:38;;;;;;;3.20;2.13;;;23.20;76.30;;;;;;6207681;28;80463;-60
2023/03/11 09:20:39;;;;;;;3.78;1.80;;;23.20;76.60;;;;;;6196234;28;80768;-59
2023/03/11 09:23:39;;;;;;;8.20;2.42;;;23.30;76.70;;;;;;6204028;28;80975;-59
2023/03/11 09:26:40;;;;;;;9.98;2.28;;;23.30;76.60;;;;;;6206794;28;80803;-64
2023/03/11 09:29:40;;;;;;;7.28;2.90;;;23.30;76.70;;;;;;6207859;28;80558;-59
2023/03/11 09:32:41;;;;;;;12.38;2.40;;;23.30;76.90;;;;;;6206816;28;80722;-61
2023/03/11 09:35:42;;;;;;;12.35;2.45;;;23.30;76.90;;;;;;6206313;28;82297;-60
2023/03/11 09:38:42;;;;;;;7.30;2.08;;;23.30;77.10;;;;;;6203905;28;82414;-59
2023/03/11 09:41:43;;;;;;;19.25;2.75;;;23.30;77.30;;;;;;6206129;28;80117;-59
2023/03/11 09:44:44;;;;;;;20.38;3.42;;;23.30;77.20;;;;;;6207075;28;80181;-61
2023/03/11 09:47:45;;;;;;;14.43;2.22;;;23.30;77.30;;;;;;6206977;28;80137;-60
2023/03/11 09:50:45;;;;;;;16.73;2.55;;;23.30;77.20;;;;;;6206671;28;80944;-59
2023/03/11 09:53:46;;;;;;;16.77;2.40;;;23.30;77.30;;;;;;6204707;28;81400;-60
2023/03/11 09:56:46;;;;;;;31.58;3.25;;;23.30;77.10;;;;;;6207075;28;80961;-60
2023/03/11 09:59:47;;;;;;;21.48;2.42;;;23.30;77.40;;;;;;6206021;28;80226;-61
2023/03/11 10:02:48;;;;;;;19.75;2.95;;;23.30;77.40;;;;;;6202934;28;83117;-61
2023/03/11 10:05:48;;;;;;;50.38;2.65;;;23.30;77.40;;;;;;6205855;28;80511;-64
2023/03/11 10:08:49;;;;;;;16.67;2.22;;;23.30;77.70;;;;;;6203236;28;81162;-62
2023/03/11 10:11:49;;;;;;;24.77;3.88;;;23.30;77.50;;;;;;6206410;28;80832;-62
2023/03/11 10:14:50;;;;;;;31.90;3.35;;;23.30;77.50;;;;;;6205932;28;80247;-62
2023/03/11 10:17:50;;;;;;;12.55;2.72;;;23.30;77.60;;;;;;6206368;28;80988;-61
2023/03/11 10:20:51;;;;;;;30.65;3.38;;;23.30;77.60;;;;;;6203587;28;80836;-62
2023/03/11 10:23:51;;;;;;;27.40;2.58;;;23.30;77.70;;;;;;6203611;28;81206;-60
2023/03/11 10:26:52;;;;;;;26.67;2.70;;;23.30;77.40;;;;;;6205361;28;83097;-63
2023/03/11 10:29:53;;;;;;;40.83;4.32;;;23.30;77.50;;;;;;6205691;28;81072;-62
2023/03/11 10:32:53;;;;;;;31.15;3.17;;;23.30;77.60;;;;;;6206385;28;81118;-63
2023/03/11 10:35:54;;;;;;;39.53;3.25;;;23.30;77.50;;;;;;6202838;28;80788;-63
2023/03/11 10:38:54;;;;;;;33.90;4.35;;;23.30;78.30;;;;;;6205102;28;82418;-62
2023/03/11 10:41:55;;;;;;;23.23;3.83;;;23.30;77.60;;;;;;6200612;28;80414;-63
2023/03/11 10:44:55;;;;;;;25.95;2.92;;;23.30;77.40;;;;;;6205855;28;80833;-63
2023/03/11 10:47:57;;;;;;;19.02;2.42;;;23.30;77.30;;;;;;6205791;28;80345;-63
2023/03/11 10:50:57;;;;;;;18.77;3.05;;;23.30;77.30;;;;;;6200615;28;82575;-66
2023/03/11 10:53:58;;;;;;;35.38;3.67;;;23.30;77.10;;;;;;6204432;28;80286;-64
2023/03/11 10:56:58;;;;;;;64.13;4.93;;;23.20;77.00;;;;;;6206122;28;81776;-73
2023/03/11 10:59:59;;;;;;;51.63;4.70;;;23.20;77.20;;;;;;6204484;28;81034;-64
2023/03/11 11:03:00;;;;;;;33.83;3.58;;;23.20;77.20;;;;;;6205291;28;80716;-64
2023/03/11 11:06:02;;;;;;;34.92;4.25;;;23.20;77.10;;;;;;6198551;28;82105;-63
2023/03/11 11:09:02;;;;;;;34.17;4.13;;;23.20;77.20;;;;;;6204910;28;80359;-67
2023/03/11 11:12:03;;;;;;;51.33;3.97;;;23.20;77.20;;;;;;6203647;28;80504;-66
2023/03/11 11:15:04;;;;;;;48.85;4.38;;;23.20;77.00;;;;;;6205513;28;81102;-65
2023/03/11 11:18:05;;;;;;;37.03;4.20;;;23.10;77.20;;;;;;6204812;28;81308;-65
2023/03/11 11:21:05;;;;;;;42.60;3.92;;;23.10;77.10;;;;;;6200327;28;80398;-65
2023/03/11 11:24:06;;;;;;;40.75;3.17;;;23.10;77.00;;;;;;6204356;28;80294;-66
2023/03/11 11:27:06;;;;;;;25.38;2.70;;;23.00;76.90;;;;;;6204409;28;80513;-65
2023/03/11 11:30:11;;;;;;;16.73;3.28;;;23.00;76.80;;;;;;6204165;28;81090;-66
2023/03/11 11:33:11;;;;;;;18.02;2.97;;;23.00;76.70;;;;;;6204966;28;80360;-66
2023/03/11 11:36:12;;;;;;;6.55;2.15;;;22.90;77.00;;;;;;6201849;28;82299;-66
2023/03/11 11:39:12;;;;;;;7.95;2.53;;;22.90;76.30;;;;;;6205881;28;80501;-65
2023/03/11 11:42:13;;;;;;;3.83;2.40;;;22.40;76.00;;;;;;6204085;28;80219;-72
2023/03/11 11:45:13;;;;;;;6.30;2.67;;;22.10;76.60;;;;;;6203195;28;82114;-73
2023/03/11 11:48:14;;;;;;;5.05;2.65;;;21.80;76.60;;;;;;6201230;28;80250;-69
2023/03/11 11:51:15;;;;;;;4.40;2.90;;;21.50;76.60;;;;;;6205334;28;80479;-73
2023/03/11 11:54:16;;;;;;;7.97;2.83;;;21.40;76.50;;;;;;6204254;28;80730;-69
2023/03/11 11:57:16;;;;;;;7.25;3.67;;;21.20;76.70;;;;;;6204217;28;80463;-59
2023/03/11 12:00:19;;;;;;;6.35;2.75;;;20.70;76.90;;;;;;6201891;28;80281;-59
2023/03/11 12:03:19;;;;;;;6.07;3.00;;;20.60;77.00;;;;;;6195773;28;82317;-59
2023/03/11 12:06:20;;;;;;;7.30;4.15;;;20.70;77.30;;;;;;6198708;28;80966;-59
2023/03/11 12:09:23;;;;;;;8.27;4.25;;;20.60;77.30;;;;;;6202581;28;83493;-59
2023/03/11 12:12:23;;;;;;;6.32;3.58;;;20.50;77.40;;;;;;6201591;28;81253;-59
2023/03/11 12:15:25;;;;;;;5.95;3.33;;;20.30;77.40;;;;;;6201690;28;81431;-58
2023/03/11 12:18:25;;;;;;;7.22;3.58;;;20.20;77.60;;;;;;6199019;28;81672;-59
2023/03/11 12:21:26;;;;;;;4.72;2.83;;;20.20;77.60;;;;;;6199482;28;80342;-58
2023/03/11 12:24:27;;;;;;;4.40;3.13;;;20.20;77.60;;;;;;6200040;28;81553;-62
2023/03/11 12:27:27;;;;;;;5.40;3.20;;;20.30;77.90;;;;;;6203796;28;81679;-61
2023/03/11 12:30:28;;;;;;;4.85;3.10;;;20.60;78.10;;;;;;6199054;28;80063;-60
2023/03/11 12:33:29;;;;;;;6.18;3.38;;;20.90;77.80;;;;;;6196670;28;82830;-60
2023/03/11 12:36:30;;;;;;;3.83;2.85;;;21.10;77.90;;;;;;6197362;28;80404;-61
2023/03/11 12:39:31;;;;;;;5.60;3.03;;;21.30;77.70;;;;;;6200185;28;80980;-61
2023/03/11 12:42:31;;;;;;;5.22;2.63;;;21.50;77.70;;;;;;6197257;28;83727;-61
2023/03/11 12:45:32;;;;;;;13.13;2.80;;;21.70;77.70;;;;;;6202989;28;81347;-61
2023/03/11 12:48:32;;;;;;;5.88;2.90;;;21.80;77.60;;;;;;6193135;28;80930;-62
2023/03/11 12:51:33;;;;;;;6.32;2.80;;;21.90;77.70;;;;;;6198495;28;81518;-63
2023/03/11 12:54:34;;;;;;;3.75;2.33;;;22.10;77.70;;;;;;6194992;28;80614;-62
2023/03/11 12:57:34;;;;;;;8.70;3.00;;;22.20;77.70;;;;;;6196243;28;79993;-65
2023/03/11 13:00:35;;;;;;;4.00;2.38;;;22.30;77.70;;;;;;6203880;28;81173;-61
2023/03/11 13:03:36;;;;;;;5.15;2.10;;;22.40;77.40;;;;;;6201108;28;80297;-60
2023/03/11 13:06:36;;;;;;;3.47;1.92;;;22.50;77.30;;;;;;6192998;28;83315;-60
2023/03/11 13:09:37;;;;;;;6.82;2.55;;;22.60;77.00;;;;;;6194144;28;80410;-59
2023/03/11 13:12:37;;;;;;;3.42;2.30;;;22.70;76.70;;;;;;6195777;28;81775;-60
2023/03/11 13:15:41;;;;;;;2.90;2.20;;;22.80;76.40;;;;;;6202281;28;82786;-60
2023/03/11 13:18:41;;;;;;;3.88;2.28;;;22.90;76.10;;;;;;6199910;28;81110;-63
2023/03/11 13:21:42;;;;;;;3.10;2.10;;;22.90;75.60;;;;;;6205227;28;81892;-64
2023/03/11 13:24:42;;;;;;;3.17;2.45;;;22.90;75.50;;;;;;6207774;28;81026;-62
2023/03/11 13:27:43;;;;;;;2.95;2.28;;;23.00;75.40;;;;;;6135291;28;87637;-63
2023/03/11 13:30:43;;;;;;;3.42;2.28;;;23.00;75.40;;;;;;6101455;28;83027;-63
2023/03/11 13:33:45;;;;;;;2.88;2.00;;;23.00;75.30;;;;;;6105837;28;81133;-64
2023/03/11 13:36:45;;;;;;;2.72;2.22;;;23.00;75.20;;;;;;6104610;28;80620;-63
2023/03/11 13:39:46;;;;;;;2.45;1.90;;;23.10;75.20;;;;;;6105005;28;81302;-64
2023/03/11 13:42:47;;;;;;;3.95;2.00;;;23.10;75.10;;;;;;6094500;27;81018;-67
2023/03/11 13:45:47;;;;;;;4.65;2.42;;;23.20;75.20;;;;;;6088539;28;80513;-62
2023/03/11 13:48:48;;;;;;;2.58;2.03;;;23.20;75.10;;;;;;6105510;28;80908;-64
2023/03/11 13:51:48;;;;;;;5.45;2.20;;;23.20;75.00;;;;;;6105587;28;80293;-63
2023/03/11 13:54:49;;;;;;;4.45;2.53;;;23.20;75.00;;;;;;6103175;28;80948;-64
2023/03/11 13:57:49;;;;;;;4.50;2.40;;;23.20;74.90;;;;;;6105297;28;80912;-63
2023/03/11 14:00:50;;;;;;;3.05;2.10;;;23.20;74.80;;;;;;6102104;28;80376;-64
2023/03/11 14:03:50;;;;;;;6.82;3.00;;;23.20;74.80;;;;;;6103030;28;81610;-64
2023/03/11 14:06:51;;;;;;;4.25;2.60;;;23.30;74.80;;;;;;6182438;28;80418;-62
2023/03/11 14:09:52;;;;;;;4.63;2.55;;;23.30;75.40;;;;;;6129073;28;82482;-62
2023/03/11 14:12:52;;;;;;;4.53;2.88;;;23.30;74.80;;;;;;6103567;28;81691;-63
2023/03/11 14:15:53;;;;;;;3.10;2.42;;;23.30;74.70;;;;;;6101995;28;81036;-63
2023/03/11 14:18:53;;;;;;;5.53;3.10;;;23.30;74.60;;;;;;6103305;28;81711;-62
2023/03/11 14:21:57;;;;;;;4.72;2.63;;;23.30;74.50;;;;;;6082673;28;80735;-62
2023/03/11 14:24:57;;;;;;;4.40;2.63;;;23.30;74.40;;;;;;6185059;28;80291;-67
2023/03/11 14:27:58;;;;;;;3.95;2.42;;;23.40;74.50;;;;;;6110178;28;80631;-67
2023/03/11 14:30:58;;;;;;;3.22;2.13;;;23.40;74.40;;;;;;6104616;28;81098;-66
2023/03/11 14:34:03;;;;;;;4.07;2.80;;;23.40;74.40;;;;;;6105716;28;80086;-70
2023/03/11 14:37:03;;;;;;;3.33;2.45;;;23.40;74.50;;;;;;6104969;28;81456;-68
2023/03/11 14:40:04;;;;;;;4.50;2.67;;;23.40;74.50;;;;;;6100221;28;80550;-66
2023/03/11 14:43:04;;;;;;;3.90;2.60;;;23.40;74.20;;;;;;6100750;28;80485;-68
2023/03/11 14:46:05;;;;;;;3.92;2.58;;;23.40;74.20;;;;;;6098997;28;83715;-70
2023/03/11 14:49:05;;;;;;;3.25;2.42;;;23.50;73.90;;;;;;6104663;28;80490;-72
2023/03/11 14:52:06;;;;;;;6.78;2.40;;;23.40;73.80;;;;;;6103065;28;80373;-72
2023/03/11 14:55:07;;;;;;;4.47;3.05;;;23.40;73.60;;;;;;6103406;28;81950;-69
2023/03/11 14:58:07;;;;;;;3.75;2.70;;;23.50;73.80;;;;;;6101040;28;81741;-65
2023/03/11 15:01:08;;;;;;;3.22;2.70;;;23.50;73.80;;;;;;6104528;28;81566;-65
2023/03/11 15:04:08;;;;;;;4.18;2.47;;;23.40;73.80;;;;;;6103574;28;80750;-67
2023/03/11 15:07:09;;;;;;;4.40;2.75;;;23.40;73.60;;;;;;6107799;27;83140;-68
2023/03/11 15:10:09;;;;;;;4.60;2.95;;;23.50;73.70;;;;;;6104062;28;81298;-72
2023/03/11 15:13:10;;;;;;;3.30;2.63;;;23.40;73.60;;;;;;6100365;28;81168;-72
2023/03/11 15:16:10;;;;;;;3.38;2.88;;;23.40;73.70;;;;;;6103596;28;80635;-65
2023/03/11 15:19:11;;;;;;;3.17;2.40;;;23.30;72.70;;;;;;6095158;28;80327;-58
2023/03/11 15:22:11;;;;;;;4.13;2.33;;;23.00;72.20;;;;;;6101003;28;80256;-63
2023/03/11 15:25:12;;;;;;;3.78;2.63;;;22.80;73.20;;;;;;6104150;28;80352;-62
2023/03/11 15:28:13;;;;;;;3.25;2.35;;;22.90;73.60;;;;;;6102438;28;81547;-62
2023/03/11 15:31:13;;;;;;;5.25;2.35;;;22.90;73.80;;;;;;6105062;28;80122;-63
2023/03/11 15:34:14;;;;;;;3.38;2.40;;;22.90;73.70;;;;;;6104318;28;80392;-61
2023/03/11 15:37:14;;;;;;;4.13;2.50;;;23.00;73.70;;;;;;6103441;28;80411;-61
2023/03/11 15:40:15;;;;;;;3.47;2.20;;;23.00;73.60;;;;;;6101335;28;81402;-60